Crescent, Oklahoma
Current Conditions -  °F | °C
As of 7:53 AM on Tuesday 27 Jan 2015 (Local Time) from KGOK Reporting Station
NA  
Wind Chill: 39°   Ceiling: NA
Heat Index: 39°   Visibility: 10mi
Dew Point: 33°   Wind: 0mph
Humidity: 79%   Direction: NA
Pressure: 30.15"   Gusts: NA
Location:  35.95°N, 97.59°W
Report Text: KGOK 271353Z AUTO 00000KT 10SM 04/01 A3015 RMK AO2 SLP213 T00390006 $
Loading
Personal Weather Stations






























Interactive Weather Map New forecast layout! Learn more

10-Day Weather Forecast

Advertisements
Track Severe Weather on mobile